sensor_id;sensor_type;location;lat;lon;timestamp;pressure;altitude;pressure_sealevel;temperature;humidity
80482;BME280;69797;43.864;21.410;2024-02-23T00:00:36;99552.78;;;9.68;51.48
80482;BME280;69797;43.864;21.410;2024-02-23T00:03:03;99553.16;;;9.72;52.06
80482;BME280;69797;43.864;21.410;2024-02-23T00:05:30;99550.06;;;9.68;52.39
80482;BME280;69797;43.864;21.410;2024-02-23T00:07:56;99569.03;;;9.81;52.88
80482;BME280;69797;43.864;21.410;2024-02-23T00:10:23;99561.00;;;9.68;53.24
80482;BME280;69797;43.864;21.410;2024-02-23T00:12:50;99575.88;;;9.72;52.68
80482;BME280;69797;43.864;21.410;2024-02-23T00:15:17;99576.31;;;9.69;52.95
80482;BME280;69797;43.864;21.410;2024-02-23T00:17:44;99561.31;;;9.60;52.81
80482;BME280;69797;43.864;21.410;2024-02-23T00:20:11;99548.78;;;9.52;53.60
80482;BME280;69797;43.864;21.410;2024-02-23T00:22:38;99528.63;;;9.35;54.02
80482;BME280;69797;43.864;21.410;2024-02-23T00:25:05;99568.78;;;9.53;53.00
80482;BME280;69797;43.864;21.410;2024-02-23T00:27:32;99562.41;;;9.41;53.03
80482;BME280;69797;43.864;21.410;2024-02-23T00:29:59;99563.69;;;9.38;53.46
80482;BME280;69797;43.864;21.410;2024-02-23T00:32:26;99542.91;;;9.19;54.16
80482;BME280;69797;43.864;21.410;2024-02-23T00:34:53;99574.72;;;9.31;53.85
80482;BME280;69797;43.864;21.410;2024-02-23T00:37:20;99560.38;;;9.18;54.06
80482;BME280;69797;43.864;21.410;2024-02-23T00:39:46;99567.88;;;9.22;54.40
80482;BME280;69797;43.864;21.410;2024-02-23T00:42:13;99548.31;;;9.07;55.10
80482;BME280;69797;43.864;21.410;2024-02-23T00:44:40;99576.41;;;9.14;54.54
80482;BME280;69797;43.864;21.410;2024-02-23T00:47:06;99555.75;;;9.00;54.51
80482;BME280;69797;43.864;21.410;2024-02-23T00:49:33;99538.44;;;8.87;55.58
80482;BME280;69797;43.864;21.410;2024-02-23T00:52:00;99562.19;;;9.05;55.21
80482;BME280;69797;43.864;21.410;2024-02-23T00:54:27;99557.34;;;9.07;55.52
80482;BME280;69797;43.864;21.410;2024-02-23T00:56:53;99558.69;;;8.98;55.02
80482;BME280;69797;43.864;21.410;2024-02-23T00:59:23;99548.22;;;8.95;55.67
80482;BME280;69797;43.864;21.410;2024-02-23T01:01:50;99569.09;;;9.08;55.73
80482;BME280;69797;43.864;21.410;2024-02-23T01:04:16;99543.00;;;8.94;54.35
80482;BME280;69797;43.864;21.410;2024-02-23T01:06:43;99540.72;;;8.91;54.87
80482;BME280;69797;43.864;21.410;2024-02-23T01:09:10;99559.44;;;9.05;54.71
80482;BME280;69797;43.864;21.410;2024-02-23T01:11:37;99546.56;;;8.94;55.89
80482;BME280;69797;43.864;21.410;2024-02-23T01:14:04;99539.75;;;8.85;56.03
80482;BME280;69797;43.864;21.410;2024-02-23T01:16:31;99560.00;;;8.96;55.69
80482;BME280;69797;43.864;21.410;2024-02-23T01:18:59;99515.34;;;8.65;55.51
80482;BME280;69797;43.864;21.410;2024-02-23T01:21:25;99547.75;;;8.80;54.84
80482;BME280;69797;43.864;21.410;2024-02-23T01:23:52;99530.47;;;8.68;55.37
80482;BME280;69797;43.864;21.410;2024-02-23T01:26:19;99542.34;;;8.73;55.83
80482;BME280;69797;43.864;21.410;2024-02-23T01:28:45;99543.50;;;8.65;55.97
80482;BME280;69797;43.864;21.410;2024-02-23T01:31:12;99524.50;;;8.52;57.45
80482;BME280;69797;43.864;21.410;2024-02-23T01:33:40;99519.28;;;8.51;57.19
80482;BME280;69797;43.864;21.410;2024-02-23T01:36:07;99537.13;;;8.53;57.67
80482;BME280;69797;43.864;21.410;2024-02-23T01:38:34;99513.03;;;8.44;57.13
80482;BME280;69797;43.864;21.410;2024-02-23T01:41:01;99527.22;;;8.52;56.63
80482;BME280;69797;43.864;21.410;2024-02-23T01:43:28;99529.13;;;8.52;56.53
80482;BME280;69797;43.864;21.410;2024-02-23T01:45:55;99509.69;;;8.41;56.98
80482;BME280;69797;43.864;21.410;2024-02-23T01:48:21;99513.50;;;8.40;57.46
80482;BME280;69797;43.864;21.410;2024-02-23T01:50:48;99514.31;;;8.41;56.47
80482;BME280;69797;43.864;21.410;2024-02-23T01:53:16;99522.69;;;8.46;57.38
80482;BME280;69797;43.864;21.410;2024-02-23T01:55:46;99509.75;;;8.35;56.55
80482;BME280;69797;43.864;21.410;2024-02-23T01:58:14;99514.03;;;8.24;57.15
80482;BME280;69797;43.864;21.410;2024-02-23T02:00:41;99509.03;;;8.21;57.11
80482;BME280;69797;43.864;21.410;2024-02-23T02:03:08;99498.56;;;8.18;56.87
80482;BME280;69797;43.864;21.410;2024-02-23T02:05:38;99503.63;;;8.14;57.33
80482;BME280;69797;43.864;21.410;2024-02-23T02:08:05;99510.34;;;8.12;57.27
80482;BME280;69797;43.864;21.410;2024-02-23T02:10:32;99505.13;;;8.10;57.79
80482;BME280;69797;43.864;21.410;2024-02-23T02:13:03;99520.38;;;8.18;57.61
80482;BME280;69797;43.864;21.410;2024-02-23T02:15:31;99511.63;;;8.09;57.87
80482;BME280;69797;43.864;21.410;2024-02-23T02:17:57;99522.44;;;8.23;58.27
80482;BME280;69797;43.864;21.410;2024-02-23T02:20:25;99500.28;;;8.12;57.87
80482;BME280;69797;43.864;21.410;2024-02-23T02:22:55;99505.22;;;8.22;57.86
80482;BME280;69797;43.864;21.410;2024-02-23T02:25:22;99528.78;;;8.41;57.74
80482;BME280;69797;43.864;21.410;2024-02-23T02:27:48;99487.59;;;8.25;57.88
80482;BME280;69797;43.864;21.410;2024-02-23T02:30:15;99496.31;;;8.33;57.23
80482;BME280;69797;43.864;21.410;2024-02-23T02:32:42;99499.66;;;8.35;57.40
80482;BME280;69797;43.864;21.410;2024-02-23T02:35:12;99524.44;;;8.59;56.60
80482;BME280;69797;43.864;21.410;2024-02-23T02:37:39;99510.19;;;8.57;57.56
80482;BME280;69797;43.864;21.410;2024-02-23T02:40:06;99515.13;;;8.67;56.74
80482;BME280;69797;43.864;21.410;2024-02-23T02:42:33;99522.03;;;8.69;57.22
80482;BME280;69797;43.864;21.410;2024-02-23T02:45:01;99504.69;;;8.63;57.66
80482;BME280;69797;43.864;21.410;2024-02-23T02:47:29;99514.22;;;8.73;57.94
80482;BME280;69797;43.864;21.410;2024-02-23T02:49:56;99501.84;;;8.70;58.31
80482;BME280;69797;43.864;21.410;2024-02-23T02:52:23;99517.25;;;8.83;57.33
80482;BME280;69797;43.864;21.410;2024-02-23T02:54:50;99475.84;;;8.68;57.66
80482;BME280;69797;43.864;21.410;2024-02-23T02:57:17;99498.97;;;8.83;58.21
80482;BME280;69797;43.864;21.410;2024-02-23T02:59:44;99506.03;;;8.91;58.33
80482;BME280;69797;43.864;21.410;2024-02-23T03:02:12;99493.91;;;8.87;58.27
80482;BME280;69797;43.864;21.410;2024-02-23T03:04:47;99513.31;;;8.97;57.80
80482;BME280;69797;43.864;21.410;2024-02-23T03:07:14;99503.28;;;8.91;57.93
80482;BME280;69797;43.864;21.410;2024-02-23T03:09:41;99511.28;;;8.93;57.14
80482;BME280;69797;43.864;21.410;2024-02-23T03:12:09;99503.38;;;8.84;57.33
80482;BME280;69797;43.864;21.410;2024-02-23T03:14:36;99519.94;;;8.89;57.92
80482;BME280;69797;43.864;21.410;2024-02-23T03:17:07;99499.22;;;8.82;58.39
80482;BME280;69797;43.864;21.410;2024-02-23T03:19:37;99514.16;;;8.79;57.98
80482;BME280;69797;43.864;21.410;2024-02-23T03:22:04;99523.81;;;8.82;57.95
80482;BME280;69797;43.864;21.410;2024-02-23T03:24:31;99512.94;;;8.75;57.60
80482;BME280;69797;43.864;21.410;2024-02-23T03:26:58;99523.47;;;8.72;58.76
80482;BME280;69797;43.864;21.410;2024-02-23T03:29:25;99521.59;;;8.72;58.75
80482;BME280;69797;43.864;21.410;2024-02-23T03:31:56;99504.56;;;8.70;58.78
80482;BME280;69797;43.864;21.410;2024-02-23T03:34:23;99518.16;;;8.77;58.89
80482;BME280;69797;43.864;21.410;2024-02-23T03:36:50;99497.53;;;8.62;59.24
80482;BME280;69797;43.864;21.410;2024-02-23T03:39:16;99509.13;;;8.76;58.84
80482;BME280;69797;43.864;21.410;2024-02-23T03:41:43;99512.50;;;8.78;57.85
80482;BME280;69797;43.864;21.410;2024-02-23T03:44:10;99502.72;;;8.71;57.95
80482;BME280;69797;43.864;21.410;2024-02-23T03:46:37;99505.97;;;8.79;58.05
80482;BME280;69797;43.864;21.410;2024-02-23T03:49:03;99489.66;;;8.73;57.81
80482;BME280;69797;43.864;21.410;2024-02-23T03:51:30;99497.31;;;8.82;58.04
80482;BME280;69797;43.864;21.410;2024-02-23T03:53:59;99505.00;;;8.92;58.53
80482;BME280;69797;43.864;21.410;2024-02-23T03:56:26;99499.72;;;8.91;57.61
80482;BME280;69797;43.864;21.410;2024-02-23T03:58:52;99487.34;;;8.88;58.71
80482;BME280;69797;43.864;21.410;2024-02-23T04:01:19;99493.13;;;8.98;58.54
80482;BME280;69797;43.864;21.410;2024-02-23T04:03:46;99484.41;;;8.89;59.59
80482;BME280;69797;43.864;21.410;2024-02-23T04:06:13;99488.59;;;8.92;57.85
80482;BME280;69797;43.864;21.410;2024-02-23T04:08:39;99477.19;;;8.95;58.17
80482;BME280;69797;43.864;21.410;2024-02-23T04:11:07;99491.59;;;9.02;57.76
80482;BME280;69797;43.864;21.410;2024-02-23T04:13:34;99483.41;;;9.02;57.96
80482;BME280;69797;43.864;21.410;2024-02-23T04:16:01;99481.75;;;9.01;58.40
80482;BME280;69797;43.864;21.410;2024-02-23T04:18:28;99463.06;;;8.98;57.89
80482;BME280;69797;43.864;21.410;2024-02-23T04:20:55;99460.59;;;8.97;57.91
80482;BME280;69797;43.864;21.410;2024-02-23T04:23:21;99490.47;;;9.10;58.33
80482;BME280;69797;43.864;21.410;2024-02-23T04:25:48;99489.41;;;9.11;58.49
80482;BME280;69797;43.864;21.410;2024-02-23T04:28:17;99479.63;;;9.03;58.27
80482;BME280;69797;43.864;21.410;2024-02-23T04:30:44;99482.88;;;9.12;58.69
80482;BME280;69797;43.864;21.410;2024-02-23T04:33:10;99480.50;;;9.16;58.20
80482;BME280;69797;43.864;21.410;2024-02-23T04:35:38;99466.56;;;9.05;58.41
80482;BME280;69797;43.864;21.410;2024-02-23T04:38:04;99471.72;;;9.13;58.41
80482;BME280;69797;43.864;21.410;2024-02-23T04:40:31;99462.28;;;9.09;58.98
80482;BME280;69797;43.864;21.410;2024-02-23T04:42:58;99473.91;;;9.23;59.08
80482;BME280;69797;43.864;21.410;2024-02-23T04:45:24;99467.09;;;9.14;59.01
80482;BME280;69797;43.864;21.410;2024-02-23T04:47:51;99485.53;;;9.19;58.78
80482;BME280;69797;43.864;21.410;2024-02-23T04:50:18;99469.59;;;9.16;58.99
80482;BME280;69797;43.864;21.410;2024-02-23T04:52:45;99494.00;;;9.29;58.38
80482;BME280;69797;43.864;21.410;2024-02-23T04:55:11;99481.06;;;9.24;57.76
80482;BME280;69797;43.864;21.410;2024-02-23T04:57:38;99496.03;;;9.33;57.75
80482;BME280;69797;43.864;21.410;2024-02-23T05:00:06;99492.34;;;9.28;57.98
80482;BME280;69797;43.864;21.410;2024-02-23T05:02:36;99492.13;;;9.29;58.15
80482;BME280;69797;43.864;21.410;2024-02-23T05:05:04;99483.53;;;9.26;58.04
80482;BME280;69797;43.864;21.410;2024-02-23T05:07:31;99490.91;;;9.25;58.19
80482;BME280;69797;43.864;21.410;2024-02-23T05:09:58;99487.81;;;9.22;58.12
80482;BME280;69797;43.864;21.410;2024-02-23T05:12:25;99492.28;;;9.16;58.36
80482;BME280;69797;43.864;21.410;2024-02-23T05:14:52;99500.38;;;9.23;58.44
80482;BME280;69797;43.864;21.410;2024-02-23T05:17:19;99487.50;;;9.11;58.71
80482;BME280;69797;43.864;21.410;2024-02-23T05:19:46;99485.16;;;8.97;59.04
80482;BME280;69797;43.864;21.410;2024-02-23T05:22:13;99506.94;;;9.03;58.88
80482;BME280;69797;43.864;21.410;2024-02-23T05:24:39;99481.06;;;8.87;59.17
80482;BME280;69797;43.864;21.410;2024-02-23T05:27:06;99483.03;;;8.99;59.57
80482;BME280;69797;43.864;21.410;2024-02-23T05:29:33;99485.16;;;8.97;59.99
80482;BME280;69797;43.864;21.410;2024-02-23T05:32:00;99491.59;;;9.02;59.97
80482;BME280;69797;43.864;21.410;2024-02-23T05:34:26;99494.19;;;8.97;60.05
80482;BME280;69797;43.864;21.410;2024-02-23T05:36:53;99496.47;;;9.00;59.80
80482;BME280;69797;43.864;21.410;2024-02-23T05:39:20;99503.53;;;9.08;59.85
80482;BME280;69797;43.864;21.410;2024-02-23T05:41:47;99497.38;;;9.12;60.16
80482;BME280;69797;43.864;21.410;2024-02-23T05:44:14;99513.34;;;9.27;59.73
80482;BME280;69797;43.864;21.410;2024-02-23T05:46:42;99501.06;;;9.36;59.47
80482;BME280;69797;43.864;21.410;2024-02-23T05:49:09;99485.28;;;9.39;59.49
80482;BME280;69797;43.864;21.410;2024-02-23T05:51:36;99494.94;;;9.53;59.63
80482;BME280;69797;43.864;21.410;2024-02-23T05:54:03;99502.84;;;9.73;58.91
80482;BME280;69797;43.864;21.410;2024-02-23T05:56:30;99505.75;;;9.90;58.87
80482;BME280;69797;43.864;21.410;2024-02-23T05:58:57;99520.09;;;10.15;58.57
80482;BME280;69797;43.864;21.410;2024-02-23T06:01:24;99505.00;;;10.60;57.63
80482;BME280;69797;43.864;21.410;2024-02-23T06:03:51;99508.19;;;11.03;56.63
80482;BME280;69797;43.864;21.410;2024-02-23T06:06:17;99512.97;;;11.37;55.63
80482;BME280;69797;43.864;21.410;2024-02-23T06:08:44;99526.78;;;11.70;54.70
80482;BME280;69797;43.864;21.410;2024-02-23T06:11:12;99518.66;;;11.75;54.65
80482;BME280;69797;43.864;21.410;2024-02-23T06:13:39;99520.63;;;11.92;53.67
80482;BME280;69797;43.864;21.410;2024-02-23T06:16:10;99514.09;;;11.93;53.93
80482;BME280;69797;43.864;21.410;2024-02-23T06:18:38;99518.91;;;12.03;53.28
80482;BME280;69797;43.864;21.410;2024-02-23T06:21:14;99518.19;;;12.07;53.55
80482;BME280;69797;43.864;21.410;2024-02-23T06:23:41;99507.59;;;11.99;53.37
80482;BME280;69797;43.864;21.410;2024-02-23T06:26:09;99529.38;;;12.06;53.13
80482;BME280;69797;43.864;21.410;2024-02-23T06:28:36;99525.22;;;12.03;53.21
80482;BME280;69797;43.864;21.410;2024-02-23T06:31:05;99525.88;;;12.10;53.40
80482;BME280;69797;43.864;21.410;2024-02-23T06:33:32;99520.81;;;12.02;53.16
80482;BME280;69797;43.864;21.410;2024-02-23T06:35:59;99529.56;;;12.16;52.87
80482;BME280;69797;43.864;21.410;2024-02-23T06:38:26;99545.41;;;12.26;53.50
80482;BME280;69797;43.864;21.410;2024-02-23T06:40:53;99544.38;;;12.32;53.11
80482;BME280;69797;43.864;21.410;2024-02-23T06:43:22;99545.56;;;12.36;53.35
80482;BME280;69797;43.864;21.410;2024-02-23T06:45:49;99532.91;;;12.35;53.44
80482;BME280;69797;43.864;21.410;2024-02-23T06:48:16;99527.00;;;12.43;53.13
80482;BME280;69797;43.864;21.410;2024-02-23T06:50:43;99534.72;;;12.46;52.89
80482;BME280;69797;43.864;21.410;2024-02-23T06:53:10;99531.41;;;12.44;52.75
80482;BME280;69797;43.864;21.410;2024-02-23T06:55:37;99525.59;;;12.40;52.94
80482;BME280;69797;43.864;21.410;2024-02-23T06:58:04;99523.22;;;12.49;52.95
80482;BME280;69797;43.864;21.410;2024-02-23T07:00:31;99514.09;;;12.43;52.78
80482;BME280;69797;43.864;21.410;2024-02-23T07:02:58;99534.97;;;12.61;52.93
80482;BME280;69797;43.864;21.410;2024-02-23T07:05:25;99525.66;;;12.62;53.02
80482;BME280;69797;43.864;21.410;2024-02-23T07:07:52;99530.03;;;12.63;52.84
80482;BME280;69797;43.864;21.410;2024-02-23T07:10:19;99522.56;;;12.59;52.64
80482;BME280;69797;43.864;21.410;2024-02-23T07:12:48;99532.78;;;12.63;52.97
80482;BME280;69797;43.864;21.410;2024-02-23T07:15:15;99539.38;;;12.62;53.05
80482;BME280;69797;43.864;21.410;2024-02-23T07:17:42;99544.88;;;12.62;52.96
80482;BME280;69797;43.864;21.410;2024-02-23T07:20:09;99533.88;;;12.62;52.98
80482;BME280;69797;43.864;21.410;2024-02-23T07:22:36;99537.47;;;12.63;53.06
80482;BME280;69797;43.864;21.410;2024-02-23T07:25:03;99551.38;;;12.73;53.17
80482;BME280;69797;43.864;21.410;2024-02-23T07:27:30;99531.72;;;12.64;52.86
80482;BME280;69797;43.864;21.410;2024-02-23T07:29:57;99537.88;;;12.71;53.14
80482;BME280;69797;43.864;21.410;2024-02-23T07:32:24;99523.56;;;12.69;53.31
80482;BME280;69797;43.864;21.410;2024-02-23T07:34:52;99537.50;;;12.85;53.22
80482;BME280;69797;43.864;21.410;2024-02-23T07:37:19;99529.06;;;12.69;53.22
80482;BME280;69797;43.864;21.410;2024-02-23T07:39:46;99537.69;;;12.78;53.61
80482;BME280;69797;43.864;21.410;2024-02-23T07:42:12;99528.38;;;12.79;53.60
80482;BME280;69797;43.864;21.410;2024-02-23T07:44:41;99517.63;;;12.78;54.07
80482;BME280;69797;43.864;21.410;2024-02-23T07:47:08;99519.97;;;12.86;53.97
80482;BME280;69797;43.864;21.410;2024-02-23T07:49:34;99520.00;;;12.91;53.57
80482;BME280;69797;43.864;21.410;2024-02-23T07:52:02;99532.31;;;13.05;54.03
80482;BME280;69797;43.864;21.410;2024-02-23T07:54:29;99522.84;;;13.18;53.48
80482;BME280;69797;43.864;21.410;2024-02-23T07:56:55;99528.50;;;13.28;53.39
80482;BME280;69797;43.864;21.410;2024-02-23T07:59:24;99536.38;;;13.41;52.71
80482;BME280;69797;43.864;21.410;2024-02-23T08:01:51;99534.63;;;13.57;53.36
80482;BME280;69797;43.864;21.410;2024-02-23T08:04:18;99532.25;;;13.66;52.98
80482;BME280;69797;43.864;21.410;2024-02-23T08:06:44;99529.50;;;13.66;52.65
80482;BME280;69797;43.864;21.410;2024-02-23T08:09:11;99538.19;;;13.80;53.13
80482;BME280;69797;43.864;21.410;2024-02-23T08:11:38;99527.28;;;13.90;52.41
80482;BME280;69797;43.864;21.410;2024-02-23T08:14:05;99539.56;;;14.04;52.46
80482;BME280;69797;43.864;21.410;2024-02-23T08:16:32;99514.66;;;13.94;53.53
80482;BME280;69797;43.864;21.410;2024-02-23T08:19:00;99526.03;;;14.03;52.08
80482;BME280;69797;43.864;21.410;2024-02-23T08:21:27;99529.56;;;13.98;52.66
80482;BME280;69797;43.864;21.410;2024-02-23T08:23:54;99532.84;;;13.95;52.97
80482;BME280;69797;43.864;21.410;2024-02-23T08:26:21;99531.81;;;14.01;52.64
80482;BME280;69797;43.864;21.410;2024-02-23T08:28:48;99536.09;;;14.19;51.74
80482;BME280;69797;43.864;21.410;2024-02-23T08:31:15;99522.84;;;14.16;51.67
80482;BME280;69797;43.864;21.410;2024-02-23T08:33:43;99513.56;;;14.22;51.93
80482;BME280;69797;43.864;21.410;2024-02-23T08:36:10;99531.91;;;14.44;51.44
80482;BME280;69797;43.864;21.410;2024-02-23T08:38:37;99521.41;;;14.40;50.36
80482;BME280;69797;43.864;21.410;2024-02-23T08:41:04;99510.91;;;14.37;51.18
80482;BME280;69797;43.864;21.410;2024-02-23T08:43:31;99520.19;;;14.58;50.70
80482;BME280;69797;43.864;21.410;2024-02-23T08:45:57;99529.69;;;14.78;50.09
80482;BME280;69797;43.864;21.410;2024-02-23T08:48:33;99531.72;;;14.93;55.71
80482;BME280;69797;43.864;21.410;2024-02-23T08:50:59;99524.38;;;15.08;50.32
80482;BME280;69797;43.864;21.410;2024-02-23T08:53:26;99513.91;;;15.16;49.41
80482;BME280;69797;43.864;21.410;2024-02-23T08:55:53;99527.19;;;15.24;48.85
80482;BME280;69797;43.864;21.410;2024-02-23T08:58:20;99526.66;;;15.32;53.10
80482;BME280;69797;43.864;21.410;2024-02-23T09:00:47;99538.69;;;15.68;52.95
80482;BME280;69797;43.864;21.410;2024-02-23T09:03:13;99516.63;;;15.68;49.56
80482;BME280;69797;43.864;21.410;2024-02-23T09:05:40;99521.34;;;15.83;49.23
80482;BME280;69797;43.864;21.410;2024-02-23T09:08:07;99543.50;;;15.98;48.59
80482;BME280;69797;43.864;21.410;2024-02-23T09:10:34;99527.44;;;16.00;48.21
80482;BME280;69797;43.864;21.410;2024-02-23T09:13:01;99548.22;;;16.23;49.22
80482;BME280;69797;43.864;21.410;2024-02-23T09:15:28;99537.72;;;16.20;48.13
80482;BME280;69797;43.864;21.410;2024-02-23T09:17:55;99547.94;;;16.35;47.81
80482;BME280;69797;43.864;21.410;2024-02-23T09:20:22;99547.94;;;16.35;47.93
80482;BME280;69797;43.864;21.410;2024-02-23T09:22:49;99545.19;;;16.30;47.56
80482;BME280;69797;43.864;21.410;2024-02-23T09:25:17;99544.34;;;16.29;47.91
80482;BME280;69797;43.864;21.410;2024-02-23T09:27:44;99535.25;;;16.34;46.85
80482;BME280;69797;43.864;21.410;2024-02-23T09:30:14;99547.94;;;16.50;47.74
80482;BME280;69797;43.864;21.410;2024-02-23T09:32:41;99529.69;;;16.60;47.66
80482;BME280;69797;43.864;21.410;2024-02-23T09:35:08;99514.75;;;16.71;47.30
80482;BME280;69797;43.864;21.410;2024-02-23T09:37:35;99531.34;;;16.91;47.15
80482;BME280;69797;43.864;21.410;2024-02-23T09:40:01;99521.38;;;16.95;47.07
80482;BME280;69797;43.864;21.410;2024-02-23T09:42:29;99508.63;;;16.99;48.18
80482;BME280;69797;43.864;21.410;2024-02-23T09:44:59;99504.81;;;16.85;47.40
80482;BME280;69797;43.864;21.410;2024-02-23T09:47:27;99505.34;;;16.82;48.48
80482;BME280;69797;43.864;21.410;2024-02-23T09:49:55;99485.16;;;16.61;49.65
80482;BME280;69797;43.864;21.410;2024-02-23T09:52:23;99498.72;;;16.68;47.24
80482;BME280;69797;43.864;21.410;2024-02-23T09:54:56;99485.19;;;16.46;46.98
80482;BME280;69797;43.864;21.410;2024-02-23T09:57:36;99475.53;;;16.28;48.75
80482;BME280;69797;43.864;21.410;2024-02-23T10:00:06;99484.66;;;16.34;48.07
80482;BME280;69797;43.864;21.410;2024-02-23T10:02:34;99491.00;;;16.44;46.80
80482;BME280;69797;43.864;21.410;2024-02-23T10:05:03;99450.66;;;16.07;48.84
80482;BME280;69797;43.864;21.410;2024-02-23T10:07:30;99444.03;;;15.93;50.59
80482;BME280;69797;43.864;21.410;2024-02-23T10:09:58;99455.91;;;15.94;49.77
80482;BME280;69797;43.864;21.410;2024-02-23T10:12:25;99450.09;;;15.70;48.66
80482;BME280;69797;43.864;21.410;2024-02-23T10:14:52;99448.34;;;15.48;49.12
80482;BME280;69797;43.864;21.410;2024-02-23T10:17:20;99440.63;;;15.50;50.78
80482;BME280;69797;43.864;21.410;2024-02-23T10:19:47;99438.44;;;15.63;49.14
80482;BME280;69797;43.864;21.410;2024-02-23T10:22:14;99458.94;;;15.77;49.14
80482;BME280;69797;43.864;21.410;2024-02-23T10:24:42;99436.53;;;15.58;50.77
80482;BME280;69797;43.864;21.410;2024-02-23T10:27:09;99423.22;;;15.45;49.03
80482;BME280;69797;43.864;21.410;2024-02-23T10:29:36;99421.03;;;15.42;50.79
80482;BME280;69797;43.864;21.410;2024-02-23T10:32:05;99423.53;;;15.48;48.90
80482;BME280;69797;43.864;21.410;2024-02-23T10:34:35;99429.88;;;15.59;49.82
80482;BME280;69797;43.864;21.410;2024-02-23T10:37:06;99429.59;;;15.60;48.90
80482;BME280;69797;43.864;21.410;2024-02-23T10:39:36;99419.66;;;15.49;48.81
80482;BME280;69797;43.864;21.410;2024-02-23T10:42:04;99401.41;;;15.43;50.13
80482;BME280;69797;43.864;21.410;2024-02-23T10:44:34;99423.03;;;15.92;48.74
80482;BME280;69797;43.864;21.410;2024-02-23T10:47:04;99403.97;;;15.96;47.75
80482;BME280;69797;43.864;21.410;2024-02-23T10:49:31;99410.31;;;16.12;47.93
80482;BME280;69797;43.864;21.410;2024-02-23T10:51:59;99398.69;;;16.25;49.40
80482;BME280;69797;43.864;21.410;2024-02-23T10:54:26;99409.09;;;16.69;48.08
80482;BME280;69797;43.864;21.410;2024-02-23T10:56:53;99401.91;;;16.83;46.79
80482;BME280;69797;43.864;21.410;2024-02-23T10:59:23;99396.31;;;16.93;46.30
80482;BME280;69797;43.864;21.410;2024-02-23T11:01:51;99404.19;;;17.25;48.08
80482;BME280;69797;43.864;21.410;2024-02-23T11:04:20;99384.50;;;17.37;45.83
80482;BME280;69797;43.864;21.410;2024-02-23T11:06:51;99400.09;;;17.62;45.49
80482;BME280;69797;43.864;21.410;2024-02-23T11:09:23;99363.56;;;17.60;45.84
80482;BME280;69797;43.864;21.410;2024-02-23T11:11:52;99370.56;;;17.87;48.21
80482;BME280;69797;43.864;21.410;2024-02-23T11:14:32;99378.94;;;18.11;43.15
80482;BME280;69797;43.864;21.410;2024-02-23T11:16:59;99384.00;;;18.33;46.75
80482;BME280;69797;43.864;21.410;2024-02-23T11:22:02;99374.22;;;18.64;45.58
80482;BME280;69797;43.864;21.410;2024-02-23T11:24:30;99379.25;;;18.86;45.69
80482;BME280;69797;43.864;21.410;2024-02-23T11:27:00;99357.41;;;18.80;43.68
80482;BME280;69797;43.864;21.410;2024-02-23T11:29:34;99355.47;;;18.80;43.56
80482;BME280;69797;43.864;21.410;2024-02-23T11:32:16;99354.72;;;18.69;43.06
80482;BME280;69797;43.864;21.410;2024-02-23T11:34:56;99356.41;;;18.70;42.48
80482;BME280;69797;43.864;21.410;2024-02-23T11:37:24;99364.41;;;18.77;45.96
80482;BME280;69797;43.864;21.410;2024-02-23T11:39:54;99359.69;;;18.78;44.56
80482;BME280;69797;43.864;21.410;2024-02-23T11:42:23;99361.72;;;18.91;43.20
80482;BME280;69797;43.864;21.410;2024-02-23T11:44:50;99373.97;;;19.09;43.18
80482;BME280;69797;43.864;21.410;2024-02-23T11:47:20;99363.88;;;19.18;43.98
80482;BME280;69797;43.864;21.410;2024-02-23T11:49:47;99359.06;;;19.24;42.81
80482;BME280;69797;43.864;21.410;2024-02-23T11:52:13;99368.97;;;19.30;45.05
80482;BME280;69797;43.864;21.410;2024-02-23T11:54:40;99382.03;;;19.48;42.57
80482;BME280;69797;43.864;21.410;2024-02-23T11:57:07;99377.25;;;19.35;42.24
80482;BME280;69797;43.864;21.410;2024-02-23T11:59:34;99354.41;;;19.19;44.02
80482;BME280;69797;43.864;21.410;2024-02-23T12:02:01;99346.88;;;19.20;42.99
80482;BME280;69797;43.864;21.410;2024-02-23T12:04:31;99358.44;;;19.27;44.88
80482;BME280;69797;43.864;21.410;2024-02-23T12:06:58;99335.78;;;19.20;43.39
80482;BME280;69797;43.864;21.410;2024-02-23T12:09:25;99357.72;;;19.40;44.12
80482;BME280;69797;43.864;21.410;2024-02-23T12:11:52;99368.00;;;19.39;41.14
80482;BME280;69797;43.864;21.410;2024-02-23T12:14:19;99366.50;;;19.28;41.27
80482;BME280;69797;43.864;21.410;2024-02-23T12:16:46;99367.31;;;19.29;40.51
80482;BME280;69797;43.864;21.410;2024-02-23T12:19:14;99347.56;;;18.92;41.24
80482;BME280;69797;43.864;21.410;2024-02-23T12:21:45;99354.66;;;18.80;38.75
80482;BME280;69797;43.864;21.410;2024-02-23T12:24:12;99367.22;;;18.72;41.03
80482;BME280;69797;43.864;21.410;2024-02-23T12:26:39;99377.25;;;18.68;42.07
80482;BME280;69797;43.864;21.410;2024-02-23T12:29:06;99364.06;;;18.55;43.05
80482;BME280;69797;43.864;21.410;2024-02-23T12:31:33;99358.16;;;18.61;45.94
80482;BME280;69797;43.864;21.410;2024-02-23T12:34:01;99361.63;;;18.77;40.34
80482;BME280;69797;43.864;21.410;2024-02-23T12:36:28;99363.38;;;18.68;41.83
80482;BME280;69797;43.864;21.410;2024-02-23T12:38:55;99343.31;;;18.52;40.95
80482;BME280;69797;43.864;21.410;2024-02-23T12:41:22;99348.97;;;18.42;40.33
80482;BME280;69797;43.864;21.410;2024-02-23T12:43:49;99337.16;;;18.31;40.86
80482;BME280;69797;43.864;21.410;2024-02-23T12:46:16;99328.78;;;18.12;41.26
80482;BME280;69797;43.864;21.410;2024-02-23T12:48:43;99343.75;;;18.11;41.92
80482;BME280;69797;43.864;21.410;2024-02-23T12:51:09;99343.25;;;18.04;41.24
80482;BME280;69797;43.864;21.410;2024-02-23T12:53:38;99339.97;;;18.02;40.78
80482;BME280;69797;43.864;21.410;2024-02-23T12:56:10;99345.78;;;18.01;41.08
80482;BME280;69797;43.864;21.410;2024-02-23T12:58:41;99335.88;;;17.94;40.98